sensor_id;sensor_type;location;lat;lon;timestamp;temperature;humidity
7516;DHT22;3799;47.184;8.538;2023-04-02T00:07:53;9.10;99.90
7516;DHT22;3799;47.184;8.538;2023-04-02T00:10:34;9.20;99.90
7516;DHT22;3799;47.184;8.538;2023-04-02T00:15:42;9.10;99.90
7516;DHT22;3799;47.184;8.538;2023-04-02T00:18:16;8.80;99.90
7516;DHT22;3799;47.184;8.538;2023-04-02T00:20:52;8.80;99.90
7516;DHT22;3799;47.184;8.538;2023-04-02T00:23:19;8.80;99.90
7516;DHT22;3799;47.184;8.538;2023-04-02T00:25:47;8.70;99.90
7516;DHT22;3799;47.184;8.538;2023-04-02T00:28:20;8.90;99.90
7516;DHT22;3799;47.184;8.538;2023-04-02T00:30:51;8.80;99.90
7516;DHT22;3799;47.184;8.538;2023-04-02T00:33:21;8.80;99.90
7516;DHT22;3799;47.184;8.538;2023-04-02T00:35:54;8.90;99.90
7516;DHT22;3799;47.184;8.538;2023-04-02T00:38:29;8.80;99.90
7516;DHT22;3799;47.184;8.538;2023-04-02T00:41:00;8.70;99.90
7516;DHT22;3799;47.184;8.538;2023-04-02T00:43:31;8.90;99.90
7516;DHT22;3799;47.184;8.538;2023-04-02T00:46:07;8.90;99.90
7516;DHT22;3799;47.184;8.538;2023-04-02T00:51:28;8.80;99.90
7516;DHT22;3799;47.184;8.538;2023-04-02T00:54:03;9.00;99.90
7516;DHT22;3799;47.184;8.538;2023-04-02T00:56:38;9.00;99.90
7516;DHT22;3799;47.184;8.538;2023-04-02T00:59:32;9.10;99.90
7516;DHT22;3799;47.184;8.538;2023-04-02T01:04:41;9.20;99.90
7516;DHT22;3799;47.184;8.538;2023-04-02T01:07:10;9.00;99.90
7516;DHT22;3799;47.184;8.538;2023-04-02T01:12:23;8.70;99.90
7516;DHT22;3799;47.184;8.538;2023-04-02T01:15:06;9.00;99.90
7516;DHT22;3799;47.184;8.538;2023-04-02T01:23:42;8.90;99.90
7516;DHT22;3799;47.184;8.538;2023-04-02T01:29:22;8.90;99.90
7516;DHT22;3799;47.184;8.538;2023-04-02T01:31:52;8.70;99.90
7516;DHT22;3799;47.184;8.538;2023-04-02T01:34:23;8.90;99.90
7516;DHT22;3799;47.184;8.538;2023-04-02T01:45:10;8.70;99.90
7516;DHT22;3799;47.184;8.538;2023-04-02T01:47:39;8.80;99.90
7516;DHT22;3799;47.184;8.538;2023-04-02T01:50:27;8.80;99.90
7516;DHT22;3799;47.184;8.538;2023-04-02T01:53:00;8.70;99.90
7516;DHT22;3799;47.184;8.538;2023-04-02T01:55:45;8.90;99.90
7516;DHT22;3799;47.184;8.538;2023-04-02T01:58:18;9.00;99.90
7516;DHT22;3799;47.184;8.538;2023-04-02T02:00:56;8.80;99.90
7516;DHT22;3799;47.184;8.538;2023-04-02T02:03:28;8.90;99.90
7516;DHT22;3799;47.184;8.538;2023-04-02T02:05:57;9.00;99.90
7516;DHT22;3799;47.184;8.538;2023-04-02T02:11:14;8.90;99.90
7516;DHT22;3799;47.184;8.538;2023-04-02T02:13:54;8.70;99.90
7516;DHT22;3799;47.184;8.538;2023-04-02T02:16:22;8.90;99.90
7516;DHT22;3799;47.184;8.538;2023-04-02T02:18:53;8.90;99.90
7516;DHT22;3799;47.184;8.538;2023-04-02T02:21:42;8.80;99.90
7516;DHT22;3799;47.184;8.538;2023-04-02T02:24:23;8.80;99.90
7516;DHT22;3799;47.184;8.538;2023-04-02T02:27:07;8.70;99.90
7516;DHT22;3799;47.184;8.538;2023-04-02T02:29:42;8.80;99.90
7516;DHT22;3799;47.184;8.538;2023-04-02T02:32:11;8.90;99.90
7516;DHT22;3799;47.184;8.538;2023-04-02T02:34:45;8.90;99.90
7516;DHT22;3799;47.184;8.538;2023-04-02T02:37:22;8.70;99.90
7516;DHT22;3799;47.184;8.538;2023-04-02T02:39:53;8.80;99.90
7516;DHT22;3799;47.184;8.538;2023-04-02T02:42:46;8.60;99.90
7516;DHT22;3799;47.184;8.538;2023-04-02T02:45:19;8.70;99.90
7516;DHT22;3799;47.184;8.538;2023-04-02T02:47:48;8.80;99.90
7516;DHT22;3799;47.184;8.538;2023-04-02T02:50:22;8.60;99.90
7516;DHT22;3799;47.184;8.538;2023-04-02T02:52:54;8.40;99.90
7516;DHT22;3799;47.184;8.538;2023-04-02T02:55:27;8.70;99.90
7516;DHT22;3799;47.184;8.538;2023-04-02T02:58:08;8.60;99.90
7516;DHT22;3799;47.184;8.538;2023-04-02T03:00:38;8.40;99.90
7516;DHT22;3799;47.184;8.538;2023-04-02T03:03:10;8.60;99.90
7516;DHT22;3799;47.184;8.538;2023-04-02T03:05:42;8.70;99.90
7516;DHT22;3799;47.184;8.538;2023-04-02T03:08:17;8.40;99.90
7516;DHT22;3799;47.184;8.538;2023-04-02T03:11:09;8.50;99.90
7516;DHT22;3799;47.184;8.538;2023-04-02T03:13:39;8.50;99.90
7516;DHT22;3799;47.184;8.538;2023-04-02T03:16:22;8.40;99.90
7516;DHT22;3799;47.184;8.538;2023-04-02T03:18:54;8.40;99.90
7516;DHT22;3799;47.184;8.538;2023-04-02T03:24:10;8.60;99.90
7516;DHT22;3799;47.184;8.538;2023-04-02T03:29:56;8.40;99.90
7516;DHT22;3799;47.184;8.538;2023-04-02T03:32:29;8.60;99.90
7516;DHT22;3799;47.184;8.538;2023-04-02T03:35:35;8.50;99.90
7516;DHT22;3799;47.184;8.538;2023-04-02T03:38:19;8.40;99.90
7516;DHT22;3799;47.184;8.538;2023-04-02T03:41:02;8.50;99.90
7516;DHT22;3799;47.184;8.538;2023-04-02T03:43:39;8.60;99.90
7516;DHT22;3799;47.184;8.538;2023-04-02T03:48:42;8.60;99.90
7516;DHT22;3799;47.184;8.538;2023-04-02T03:51:26;8.50;99.90
7516;DHT22;3799;47.184;8.538;2023-04-02T03:53:56;8.40;99.90
7516;DHT22;3799;47.184;8.538;2023-04-02T03:56:33;8.40;99.90
7516;DHT22;3799;47.184;8.538;2023-04-02T03:59:14;8.40;99.90
7516;DHT22;3799;47.184;8.538;2023-04-02T04:01:58;8.30;99.90
7516;DHT22;3799;47.184;8.538;2023-04-02T04:04:30;8.20;99.90
7516;DHT22;3799;47.184;8.538;2023-04-02T04:06:59;8.30;99.90
7516;DHT22;3799;47.184;8.538;2023-04-02T04:09:36;8.50;99.90
7516;DHT22;3799;47.184;8.538;2023-04-02T04:12:26;8.10;99.90
7516;DHT22;3799;47.184;8.538;2023-04-02T04:15:00;8.20;99.90
7516;DHT22;3799;47.184;8.538;2023-04-02T04:20:16;8.10;99.90
7516;DHT22;3799;47.184;8.538;2023-04-02T04:22:49;7.90;99.90
7516;DHT22;3799;47.184;8.538;2023-04-02T04:25:27;8.10;99.90
7516;DHT22;3799;47.184;8.538;2023-04-02T04:28:05;7.90;99.90
7516;DHT22;3799;47.184;8.538;2023-04-02T04:33:46;7.60;99.90
7516;DHT22;3799;47.184;8.538;2023-04-02T04:36:28;7.50;99.90
7516;DHT22;3799;47.184;8.538;2023-04-02T04:38:59;7.70;99.90
7516;DHT22;3799;47.184;8.538;2023-04-02T04:41:34;7.70;99.90
7516;DHT22;3799;47.184;8.538;2023-04-02T04:46:59;7.30;99.90
7516;DHT22;3799;47.184;8.538;2023-04-02T04:49:50;7.60;99.90
7516;DHT22;3799;47.184;8.538;2023-04-02T04:54:51;7.70;99.90
7516;DHT22;3799;47.184;8.538;2023-04-02T04:57:31;7.50;99.90
7516;DHT22;3799;47.184;8.538;2023-04-02T05:06:42;7.30;99.90
7516;DHT22;3799;47.184;8.538;2023-04-02T05:12:20;7.50;99.90
7516;DHT22;3799;47.184;8.538;2023-04-02T05:20:45;7.60;99.90
7516;DHT22;3799;47.184;8.538;2023-04-02T05:23:52;7.60;99.90
7516;DHT22;3799;47.184;8.538;2023-04-02T05:26:39;7.70;99.90
7516;DHT22;3799;47.184;8.538;2023-04-02T05:29:19;7.50;99.90
7516;DHT22;3799;47.184;8.538;2023-04-02T05:31:59;7.90;99.90
7516;DHT22;3799;47.184;8.538;2023-04-02T05:34:31;7.90;99.90
7516;DHT22;3799;47.184;8.538;2023-04-02T05:36:59;8.00;99.90
7516;DHT22;3799;47.184;8.538;2023-04-02T05:39:26;8.10;99.90
7516;DHT22;3799;47.184;8.538;2023-04-02T05:42:00;7.80;99.90
7516;DHT22;3799;47.184;8.538;2023-04-02T05:44:35;8.00;99.90
7516;DHT22;3799;47.184;8.538;2023-04-02T05:47:20;7.70;99.90
7516;DHT22;3799;47.184;8.538;2023-04-02T05:58:27;7.60;99.90
7516;DHT22;3799;47.184;8.538;2023-04-02T06:09:55;8.00;99.90
7516;DHT22;3799;47.184;8.538;2023-04-02T06:12:31;7.80;99.90
7516;DHT22;3799;47.184;8.538;2023-04-02T06:14:58;8.00;99.90
7516;DHT22;3799;47.184;8.538;2023-04-02T06:17:26;7.80;99.90
7516;DHT22;3799;47.184;8.538;2023-04-02T06:19:56;8.10;99.90
7516;DHT22;3799;47.184;8.538;2023-04-02T06:22:37;7.90;99.90
7516;DHT22;3799;47.184;8.538;2023-04-02T06:25:15;8.00;99.90
7516;DHT22;3799;47.184;8.538;2023-04-02T06:27:45;8.00;99.90
7516;DHT22;3799;47.184;8.538;2023-04-02T06:30:40;8.10;99.90
7516;DHT22;3799;47.184;8.538;2023-04-02T06:33:11;8.10;99.90
7516;DHT22;3799;47.184;8.538;2023-04-02T06:35:41;8.40;99.90
7516;DHT22;3799;47.184;8.538;2023-04-02T06:38:19;8.40;99.90
7516;DHT22;3799;47.184;8.538;2023-04-02T06:41:01;8.40;99.90
7516;DHT22;3799;47.184;8.538;2023-04-02T06:43:54;8.50;99.90
7516;DHT22;3799;47.184;8.538;2023-04-02T06:46:30;8.60;99.90
7516;DHT22;3799;47.184;8.538;2023-04-02T06:49:37;8.40;99.90
7516;DHT22;3799;47.184;8.538;2023-04-02T06:52:27;8.50;99.90
7516;DHT22;3799;47.184;8.538;2023-04-02T06:54:56;8.80;99.90
7516;DHT22;3799;47.184;8.538;2023-04-02T06:57:24;8.50;99.90
7516;DHT22;3799;47.184;8.538;2023-04-02T06:59:52;8.90;99.90
7516;DHT22;3799;47.184;8.538;2023-04-02T07:02:27;8.80;99.90
7516;DHT22;3799;47.184;8.538;2023-04-02T07:05:02;9.10;99.90
7516;DHT22;3799;47.184;8.538;2023-04-02T07:07:30;9.20;99.90
7516;DHT22;3799;47.184;8.538;2023-04-02T07:09:57;9.40;99.90
7516;DHT22;3799;47.184;8.538;2023-04-02T07:12:25;9.50;99.90
7516;DHT22;3799;47.184;8.538;2023-04-02T07:14:53;9.40;99.90
7516;DHT22;3799;47.184;8.538;2023-04-02T07:17:21;9.30;99.90
7516;DHT22;3799;47.184;8.538;2023-04-02T07:19:49;9.30;99.90
7516;DHT22;3799;47.184;8.538;2023-04-02T07:22:17;9.70;99.90
7516;DHT22;3799;47.184;8.538;2023-04-02T07:24:45;9.70;99.90
7516;DHT22;3799;47.184;8.538;2023-04-02T07:27:13;9.80;99.90
7516;DHT22;3799;47.184;8.538;2023-04-02T07:29:41;9.90;99.90
7516;DHT22;3799;47.184;8.538;2023-04-02T07:32:13;9.90;99.90
7516;DHT22;3799;47.184;8.538;2023-04-02T07:34:41;9.90;99.90
7516;DHT22;3799;47.184;8.538;2023-04-02T07:37:13;10.30;99.90
7516;DHT22;3799;47.184;8.538;2023-04-02T07:39:42;10.30;99.90
7516;DHT22;3799;47.184;8.538;2023-04-02T07:42:09;10.30;99.90
7516;DHT22;3799;47.184;8.538;2023-04-02T07:44:37;10.30;99.90
7516;DHT22;3799;47.184;8.538;2023-04-02T07:47:04;10.40;99.90
7516;DHT22;3799;47.184;8.538;2023-04-02T07:49:32;10.30;99.90
7516;DHT22;3799;47.184;8.538;2023-04-02T07:51:59;10.50;99.90
7516;DHT22;3799;47.184;8.538;2023-04-02T07:54:27;10.80;99.90
7516;DHT22;3799;47.184;8.538;2023-04-02T07:56:55;10.60;99.90
7516;DHT22;3799;47.184;8.538;2023-04-02T07:59:22;10.70;99.90
7516;DHT22;3799;47.184;8.538;2023-04-02T08:01:51;10.90;99.90
7516;DHT22;3799;47.184;8.538;2023-04-02T08:04:20;11.00;99.90
7516;DHT22;3799;47.184;8.538;2023-04-02T08:07:01;10.80;99.90
7516;DHT22;3799;47.184;8.538;2023-04-02T08:09:31;11.40;99.90
7516;DHT22;3799;47.184;8.538;2023-04-02T08:11:59;11.10;99.90
7516;DHT22;3799;47.184;8.538;2023-04-02T08:14:27;11.40;99.90
7516;DHT22;3799;47.184;8.538;2023-04-02T08:16:57;11.20;99.90
7516;DHT22;3799;47.184;8.538;2023-04-02T08:19:24;11.70;99.90
7516;DHT22;3799;47.184;8.538;2023-04-02T08:21:52;11.80;99.90
7516;DHT22;3799;47.184;8.538;2023-04-02T08:24:20;11.90;98.00
7516;DHT22;3799;47.184;8.538;2023-04-02T08:26:49;11.90;97.30
7516;DHT22;3799;47.184;8.538;2023-04-02T08:29:18;12.00;96.10
7516;DHT22;3799;47.184;8.538;2023-04-02T08:31:45;12.00;94.60
7516;DHT22;3799;47.184;8.538;2023-04-02T08:34:13;12.20;94.60
7516;DHT22;3799;47.184;8.538;2023-04-02T08:36:42;12.10;92.70
7516;DHT22;3799;47.184;8.538;2023-04-02T08:39:11;12.30;92.40
7516;DHT22;3799;47.184;8.538;2023-04-02T08:41:59;12.00;91.90
7516;DHT22;3799;47.184;8.538;2023-04-02T08:44:48;12.10;93.00
7516;DHT22;3799;47.184;8.538;2023-04-02T08:47:19;12.50;93.90
7516;DHT22;3799;47.184;8.538;2023-04-02T08:52:24;12.50;90.90
7516;DHT22;3799;47.184;8.538;2023-04-02T08:54:53;12.50;91.30
7516;DHT22;3799;47.184;8.538;2023-04-02T08:58:30;12.70;90.90
7516;DHT22;3799;47.184;8.538;2023-04-02T09:00:41;12.50;91.10
7516;DHT22;3799;47.184;8.538;2023-04-02T09:03:20;12.50;91.30
7516;DHT22;3799;47.184;8.538;2023-04-02T09:05:56;12.60;91.20
7516;DHT22;3799;47.184;8.538;2023-04-02T09:08:26;13.10;90.70
7516;DHT22;3799;47.184;8.538;2023-04-02T09:11:08;12.90;87.70
7516;DHT22;3799;47.184;8.538;2023-04-02T09:13:41;13.30;87.70
7516;DHT22;3799;47.184;8.538;2023-04-02T09:16:17;13.00;85.10
7516;DHT22;3799;47.184;8.538;2023-04-02T09:18:50;13.10;83.50
7516;DHT22;3799;47.184;8.538;2023-04-02T09:21:37;13.30;82.70
7516;DHT22;3799;47.184;8.538;2023-04-02T09:24:10;13.30;81.80
7516;DHT22;3799;47.184;8.538;2023-04-02T09:26:40;13.60;82.40
7516;DHT22;3799;47.184;8.538;2023-04-02T09:31:49;13.70;79.80
7516;DHT22;3799;47.184;8.538;2023-04-02T09:34:32;14.10;76.50
7516;DHT22;3799;47.184;8.538;2023-04-02T09:37:16;14.20;71.60
7516;DHT22;3799;47.184;8.538;2023-04-02T09:39:45;14.30;69.70
7516;DHT22;3799;47.184;8.538;2023-04-02T09:42:33;14.30;66.00
7516;DHT22;3799;47.184;8.538;2023-04-02T09:45:22;13.90;67.10
7516;DHT22;3799;47.184;8.538;2023-04-02T09:48:20;13.60;72.10
7516;DHT22;3799;47.184;8.538;2023-04-02T09:50:49;13.50;74.40
7516;DHT22;3799;47.184;8.538;2023-04-02T09:53:34;13.40;76.60
7516;DHT22;3799;47.184;8.538;2023-04-02T09:56:19;13.50;78.10
7516;DHT22;3799;47.184;8.538;2023-04-02T10:01:44;13.30;76.10
7516;DHT22;3799;47.184;8.538;2023-04-02T10:04:42;13.50;76.90
7516;DHT22;3799;47.184;8.538;2023-04-02T10:07:42;13.60;78.60
7516;DHT22;3799;47.184;8.538;2023-04-02T10:10:17;13.70;79.20
7516;DHT22;3799;47.184;8.538;2023-04-02T10:12:53;13.60;75.80
7516;DHT22;3799;47.184;8.538;2023-04-02T10:15:30;13.70;77.30
7516;DHT22;3799;47.184;8.538;2023-04-02T10:20:45;13.70;75.00
7516;DHT22;3799;47.184;8.538;2023-04-02T10:23:28;13.70;74.90
7516;DHT22;3799;47.184;8.538;2023-04-02T10:29:08;13.70;74.10
7516;DHT22;3799;47.184;8.538;2023-04-02T10:35:38;14.10;76.00
7516;DHT22;3799;47.184;8.538;2023-04-02T10:40:39;13.80;74.00
7516;DHT22;3799;47.184;8.538;2023-04-02T10:51:40;15.10;70.90
7516;DHT22;3799;47.184;8.538;2023-04-02T10:57:00;15.30;68.20
7516;DHT22;3799;47.184;8.538;2023-04-02T10:59:34;15.20;65.70
7516;DHT22;3799;47.184;8.538;2023-04-02T11:02:26;15.30;67.60
7516;DHT22;3799;47.184;8.538;2023-04-02T11:04:58;15.10;67.70
7516;DHT22;3799;47.184;8.538;2023-04-02T11:07:42;14.80;66.10
7516;DHT22;3799;47.184;8.538;2023-04-02T11:10:15;14.80;66.90
7516;DHT22;3799;47.184;8.538;2023-04-02T11:15:38;15.60;67.20
7516;DHT22;3799;47.184;8.538;2023-04-02T11:18:20;16.20;66.70
7516;DHT22;3799;47.184;8.538;2023-04-02T11:20:55;16.00;64.00
7516;DHT22;3799;47.184;8.538;2023-04-02T11:23:27;15.80;58.30
7516;DHT22;3799;47.184;8.538;2023-04-02T11:26:27;15.90;58.20
7516;DHT22;3799;47.184;8.538;2023-04-02T11:29:18;16.10;57.70
7516;DHT22;3799;47.184;8.538;2023-04-02T11:31:49;15.90;56.40
7516;DHT22;3799;47.184;8.538;2023-04-02T11:37:28;15.90;57.50
7516;DHT22;3799;47.184;8.538;2023-04-02T11:39:57;15.70;57.50
7516;DHT22;3799;47.184;8.538;2023-04-02T11:42:29;15.70;57.70
7516;DHT22;3799;47.184;8.538;2023-04-02T11:50:43;15.60;56.90
7516;DHT22;3799;47.184;8.538;2023-04-02T11:55:41;16.00;56.90
7516;DHT22;3799;47.184;8.538;2023-04-02T11:58:23;16.30;55.90
7516;DHT22;3799;47.184;8.538;2023-04-02T12:09:21;16.50;53.90
7516;DHT22;3799;47.184;8.538;2023-04-02T12:11:52;16.90;53.70
7516;DHT22;3799;47.184;8.538;2023-04-02T12:20:02;17.30;52.20
7516;DHT22;3799;47.184;8.538;2023-04-02T12:22:38;17.00;51.30
7516;DHT22;3799;47.184;8.538;2023-04-02T12:25:26;17.20;51.40
7516;DHT22;3799;47.184;8.538;2023-04-02T12:30:37;17.70;51.50
7516;DHT22;3799;47.184;8.538;2023-04-02T12:33:29;17.90;51.30
7516;DHT22;3799;47.184;8.538;2023-04-02T12:35:59;17.80;51.70
7516;DHT22;3799;47.184;8.538;2023-04-02T12:38:28;18.20;51.40
7516;DHT22;3799;47.184;8.538;2023-04-02T12:41:04;18.60;49.90
7516;DHT22;3799;47.184;8.538;2023-04-02T12:43:41;19.10;49.90
7516;DHT22;3799;47.184;8.538;2023-04-02T12:46:12;19.40;50.90
7516;DHT22;3799;47.184;8.538;2023-04-02T12:48:41;19.40;49.80
7516;DHT22;3799;47.184;8.538;2023-04-02T12:51:09;19.70;49.30
7516;DHT22;3799;47.184;8.538;2023-04-02T12:53:40;20.30;49.30
7516;DHT22;3799;47.184;8.538;2023-04-02T12:56:18;21.00;48.40
7516;DHT22;3799;47.184;8.538;2023-04-02T12:58:53;21.50;47.30
7516;DHT22;3799;47.184;8.538;2023-04-02T13:01:23;22.20;46.30
7516;DHT22;3799;47.184;8.538;2023-04-02T13:04:07;22.60;46.10
7516;DHT22;3799;47.184;8.538;2023-04-02T13:06:35;22.70;45.20
7516;DHT22;3799;47.184;8.538;2023-04-02T13:09:05;23.00;45.60
7516;DHT22;3799;47.184;8.538;2023-04-02T13:11:38;23.20;44.90
7516;DHT22;3799;47.184;8.538;2023-04-02T13:14:15;23.30;44.00
7516;DHT22;3799;47.184;8.538;2023-04-02T13:16:44;23.60;42.90
7516;DHT22;3799;47.184;8.538;2023-04-02T13:22:00;23.40;42.20
7516;DHT22;3799;47.184;8.538;2023-04-02T13:24:30;23.60;41.80
7516;DHT22;3799;47.184;8.538;2023-04-02T13:27:02;23.60;41.60
7516;DHT22;3799;47.184;8.538;2023-04-02T13:29:34;23.00;42.00
7516;DHT22;3799;47.184;8.538;2023-04-02T13:32:09;22.20;42.50
7516;DHT22;3799;47.184;8.538;2023-04-02T13:34:38;21.90;43.10
7516;DHT22;3799;47.184;8.538;2023-04-02T13:37:05;21.90;42.00
7516;DHT22;3799;47.184;8.538;2023-04-02T13:39:35;22.10;42.20
7516;DHT22;3799;47.184;8.538;2023-04-02T13:42:03;22.50;42.00
7516;DHT22;3799;47.184;8.538;2023-04-02T13:44:37;23.10;41.80
7516;DHT22;3799;47.184;8.538;2023-04-02T13:47:12;23.60;41.30
7516;DHT22;3799;47.184;8.538;2023-04-02T13:49:40;24.10;41.50
7516;DHT22;3799;47.184;8.538;2023-04-02T13:52:12;24.30;40.40
7516;DHT22;3799;47.184;8.538;2023-04-02T13:54:47;24.50;40.30
7516;DHT22;3799;47.184;8.538;2023-04-02T13:57:16;24.70;40.00
7516;DHT22;3799;47.184;8.538;2023-04-02T13:59:43;24.70;40.00
7516;DHT22;3799;47.184;8.538;2023-04-02T14:02:17;24.60;40.00
7516;DHT22;3799;47.184;8.538;2023-04-02T14:04:48;24.60;39.60
7516;DHT22;3799;47.184;8.538;2023-04-02T14:23:51;24.00;39.90
7516;DHT22;3799;47.184;8.538;2023-04-02T14:29:45;24.00;39.30
7516;DHT22;3799;47.184;8.538;2023-04-02T14:32:22;24.00;40.00
7516;DHT22;3799;47.184;8.538;2023-04-02T14:34:58;23.70;39.60
7516;DHT22;3799;47.184;8.538;2023-04-02T14:37:46;23.70;39.70
7516;DHT22;3799;47.184;8.538;2023-04-02T14:46:16;23.80;39.70
7516;DHT22;3799;47.184;8.538;2023-04-02T14:51:59;24.20;39.00
7516;DHT22;3799;47.184;8.538;2023-04-02T14:54:46;23.60;39.10
7516;DHT22;3799;47.184;8.538;2023-04-02T14:57:29;23.10;39.80
7516;DHT22;3799;47.184;8.538;2023-04-02T15:05:59;22.70;40.60
7516;DHT22;3799;47.184;8.538;2023-04-02T15:08:29;22.50;40.00
7516;DHT22;3799;47.184;8.538;2023-04-02T15:13:56;21.40;40.90
7516;DHT22;3799;47.184;8.538;2023-04-02T15:16:26;20.30;41.90
7516;DHT22;3799;47.184;8.538;2023-04-02T15:18:58;19.70;43.10
7516;DHT22;3799;47.184;8.538;2023-04-02T15:21:42;19.20;43.40
7516;DHT22;3799;47.184;8.538;2023-04-02T15:57:18;15.70;53.00
7516;DHT22;3799;47.184;8.538;2023-04-02T16:03:01;15.50;55.60
7516;DHT22;3799;47.184;8.538;2023-04-02T16:10:54;15.50;55.40
7516;DHT22;3799;47.184;8.538;2023-04-02T16:13:35;15.60;56.00
7516;DHT22;3799;47.184;8.538;2023-04-02T16:16:17;15.30;56.10
7516;DHT22;3799;47.184;8.538;2023-04-02T16:22:28;14.70;57.70
7516;DHT22;3799;47.184;8.538;2023-04-02T16:25:00;14.90;57.80
7516;DHT22;3799;47.184;8.538;2023-04-02T16:27:40;14.80;57.90
7516;DHT22;3799;47.184;8.538;2023-04-02T16:49:30;13.50;61.20
7516;DHT22;3799;47.184;8.538;2023-04-02T16:52:25;13.00;61.60
7516;DHT22;3799;47.184;8.538;2023-04-02T16:58:19;12.90;62.90
7516;DHT22;3799;47.184;8.538;2023-04-02T17:00:56;12.80;65.40
7516;DHT22;3799;47.184;8.538;2023-04-02T17:09:27;12.20;73.30
7516;DHT22;3799;47.184;8.538;2023-04-02T17:12:25;12.20;78.00
7516;DHT22;3799;47.184;8.538;2023-04-02T17:14:58;12.30;90.20
7516;DHT22;3799;47.184;8.538;2023-04-02T17:17:26;12.20;95.60
7516;DHT22;3799;47.184;8.538;2023-04-02T17:19:59;11.90;99.90
7516;DHT22;3799;47.184;8.538;2023-04-02T17:22:29;11.90;99.90
7516;DHT22;3799;47.184;8.538;2023-04-02T17:25:00;11.70;99.90
7516;DHT22;3799;47.184;8.538;2023-04-02T17:27:34;11.40;99.90
7516;DHT22;3799;47.184;8.538;2023-04-02T17:30:17;11.20;99.90
7516;DHT22;3799;47.184;8.538;2023-04-02T17:32:45;11.20;99.90
7516;DHT22;3799;47.184;8.538;2023-04-02T17:46:38;11.00;99.90
7516;DHT22;3799;47.184;8.538;2023-04-02T17:49:23;10.70;99.90
7516;DHT22;3799;47.184;8.538;2023-04-02T17:52:03;10.90;99.90
7516;DHT22;3799;47.184;8.538;2023-04-02T17:54:49;10.80;99.90
7516;DHT22;3799;47.184;8.538;2023-04-02T18:00:37;10.40;99.90
7516;DHT22;3799;47.184;8.538;2023-04-02T18:05:46;10.50;99.90
7516;DHT22;3799;47.184;8.538;2023-04-02T18:11:13;10.80;99.90
7516;DHT22;3799;47.184;8.538;2023-04-02T18:19:29;10.40;99.90
7516;DHT22;3799;47.184;8.538;2023-04-02T18:27:20;10.20;99.90
7516;DHT22;3799;47.184;8.538;2023-04-02T18:30:34;10.00;99.90
7516;DHT22;3799;47.184;8.538;2023-04-02T18:35:47;9.90;99.90
7516;DHT22;3799;47.184;8.538;2023-04-02T18:38:40;9.90;99.90
7516;DHT22;3799;47.184;8.538;2023-04-02T18:46:56;9.90;99.90
7516;DHT22;3799;47.184;8.538;2023-04-02T18:49:33;9.90;99.90
7516;DHT22;3799;47.184;8.538;2023-04-02T18:52:11;9.90;99.90
7516;DHT22;3799;47.184;8.538;2023-04-02T18:54:50;9.80;99.90
7516;DHT22;3799;47.184;8.538;2023-04-02T18:57:25;9.80;99.90
7516;DHT22;3799;47.184;8.538;2023-04-02T19:00:27;10.00;99.90
7516;DHT22;3799;47.184;8.538;2023-04-02T19:03:14;9.60;99.90
7516;DHT22;3799;47.184;8.538;2023-04-02T19:10:59;9.90;99.90
7516;DHT22;3799;47.184;8.538;2023-04-02T19:13:27;9.60;99.90
7516;DHT22;3799;47.184;8.538;2023-04-02T19:19:36;9.80;99.90
7516;DHT22;3799;47.184;8.538;2023-04-02T19:22:13;9.80;99.90
7516;DHT22;3799;47.184;8.538;2023-04-02T19:30:55;9.80;99.90
7516;DHT22;3799;47.184;8.538;2023-04-02T19:38:52;9.80;99.90
7516;DHT22;3799;47.184;8.538;2023-04-02T19:41:47;9.80;99.90
7516;DHT22;3799;47.184;8.538;2023-04-02T19:44:17;9.80;99.90
7516;DHT22;3799;47.184;8.538;2023-04-02T19:46:46;9.50;99.90
7516;DHT22;3799;47.184;8.538;2023-04-02T19:51:49;9.50;99.90
7516;DHT22;3799;47.184;8.538;2023-04-02T19:54:19;9.30;99.90
7516;DHT22;3799;47.184;8.538;2023-04-02T19:56:47;9.80;99.90
7516;DHT22;3799;47.184;8.538;2023-04-02T19:59:14;9.70;99.90
7516;DHT22;3799;47.184;8.538;2023-04-02T20:01:45;9.70;99.90
7516;DHT22;3799;47.184;8.538;2023-04-02T20:04:13;9.70;99.90
7516;DHT22;3799;47.184;8.538;2023-04-02T20:06:47;9.60;99.90
7516;DHT22;3799;47.184;8.538;2023-04-02T20:09:14;9.70;99.90
7516;DHT22;3799;47.184;8.538;2023-04-02T20:11:41;9.40;99.90
7516;DHT22;3799;47.184;8.538;2023-04-02T20:14:09;9.40;99.90
7516;DHT22;3799;47.184;8.538;2023-04-02T20:16:36;9.60;99.90
7516;DHT22;3799;47.184;8.538;2023-04-02T20:19:04;9.30;99.90
7516;DHT22;3799;47.184;8.538;2023-04-02T20:21:32;9.40;99.90
7516;DHT22;3799;47.184;8.538;2023-04-02T20:24:05;9.50;99.90
7516;DHT22;3799;47.184;8.538;2023-04-02T20:26:33;9.50;99.90
7516;DHT22;3799;47.184;8.538;2023-04-02T20:29:02;9.30;99.90
7516;DHT22;3799;47.184;8.538;2023-04-02T20:31:29;9.20;99.90
7516;DHT22;3799;47.184;8.538;2023-04-02T20:33:57;9.30;99.90
7516;DHT22;3799;47.184;8.538;2023-04-02T20:36:25;9.20;99.90
7516;DHT22;3799;47.184;8.538;2023-04-02T20:38:52;9.40;99.90
7516;DHT22;3799;47.184;8.538;2023-04-02T20:41:19;9.10;99.90
7516;DHT22;3799;47.184;8.538;2023-04-02T20:43:49;9.30;99.90
7516;DHT22;3799;47.184;8.538;2023-04-02T20:46:16;9.30;99.90
7516;DHT22;3799;47.184;8.538;2023-04-02T20:48:44;9.30;99.90
7516;DHT22;3799;47.184;8.538;2023-04-02T20:51:12;9.20;99.90
7516;DHT22;3799;47.184;8.538;2023-04-02T20:53:41;9.20;99.90
7516;DHT22;3799;47.184;8.538;2023-04-02T20:56:13;9.20;99.90
7516;DHT22;3799;47.184;8.538;2023-04-02T20:58:42;9.40;99.90
7516;DHT22;3799;47.184;8.538;2023-04-02T21:03:44;9.30;99.90
7516;DHT22;3799;47.184;8.538;2023-04-02T21:06:18;9.40;99.90
7516;DHT22;3799;47.184;8.538;2023-04-02T21:08:46;9.30;99.90
7516;DHT22;3799;47.184;8.538;2023-04-02T21:11:15;9.40;99.90
7516;DHT22;3799;47.184;8.538;2023-04-02T21:13:43;9.60;99.90
7516;DHT22;3799;47.184;8.538;2023-04-02T21:16:19;9.40;99.90
7516;DHT22;3799;47.184;8.538;2023-04-02T21:18:48;9.60;99.90
7516;DHT22;3799;47.184;8.538;2023-04-02T21:21:18;9.30;99.90
7516;DHT22;3799;47.184;8.538;2023-04-02T21:23:45;9.40;99.90
7516;DHT22;3799;47.184;8.538;2023-04-02T21:26:16;9.30;99.90
7516;DHT22;3799;47.184;8.538;2023-04-02T21:28:44;9.30;99.90
7516;DHT22;3799;47.184;8.538;2023-04-02T21:31:14;9.20;99.90
7516;DHT22;3799;47.184;8.538;2023-04-02T21:33:45;8.90;99.90
7516;DHT22;3799;47.184;8.538;2023-04-02T21:36:18;8.70;99.90
7516;DHT22;3799;47.184;8.538;2023-04-02T21:38:49;9.00;99.90
7516;DHT22;3799;47.184;8.538;2023-04-02T21:41:23;8.90;99.90
7516;DHT22;3799;47.184;8.538;2023-04-02T21:43:51;8.90;99.90
7516;DHT22;3799;47.184;8.538;2023-04-02T21:46:22;9.10;99.90
7516;DHT22;3799;47.184;8.538;2023-04-02T21:48:51;9.30;99.90
7516;DHT22;3799;47.184;8.538;2023-04-02T21:51:21;9.00;99.90
7516;DHT22;3799;47.184;8.538;2023-04-02T21:53:49;8.90;99.90
7516;DHT22;3799;47.184;8.538;2023-04-02T21:56:19;9.30;99.90
7516;DHT22;3799;47.184;8.538;2023-04-02T21:58:47;8.90;99.90
7516;DHT22;3799;47.184;8.538;2023-04-02T22:01:16;8.90;99.90
7516;DHT22;3799;47.184;8.538;2023-04-02T22:03:58;8.80;99.90
7516;DHT22;3799;47.184;8.538;2023-04-02T22:06:28;8.80;99.90
7516;DHT22;3799;47.184;8.538;2023-04-02T22:08:58;9.00;99.90
7516;DHT22;3799;47.184;8.538;2023-04-02T22:11:31;8.80;99.90
7516;DHT22;3799;47.184;8.538;2023-04-02T22:13:59;8.80;99.90
7516;DHT22;3799;47.184;8.538;2023-04-02T22:16:31;8.90;99.90
7516;DHT22;3799;47.184;8.538;2023-04-02T22:19:01;8.60;99.90
7516;DHT22;3799;47.184;8.538;2023-04-02T22:21:30;8.70;99.90
7516;DHT22;3799;47.184;8.538;2023-04-02T22:23:59;8.80;99.90
7516;DHT22;3799;47.184;8.538;2023-04-02T22:26:29;8.70;99.90
7516;DHT22;3799;47.184;8.538;2023-04-02T22:28:58;8.50;99.90